createdAt,value
2017-08-05T00:00:39.322Z,17.00
2017-08-05T00:03:06.841Z,16.90
2017-08-05T00:05:34.391Z,16.90
2017-08-05T00:08:02.951Z,16.70
2017-08-05T00:10:30.503Z,16.50
2017-08-05T00:12:58.030Z,16.30
2017-08-05T00:15:25.582Z,16.30
2017-08-05T00:17:53.868Z,16.40
2017-08-05T00:20:21.418Z,16.40
2017-08-05T00:22:48.942Z,16.50
2017-08-05T00:25:16.494Z,16.50
2017-08-05T00:27:44.018Z,16.60
2017-08-05T00:30:11.566Z,16.60
2017-08-05T00:32:39.096Z,16.60
2017-08-05T00:35:06.643Z,16.70
2017-08-05T00:37:34.170Z,16.80
2017-08-05T00:40:01.726Z,16.80
2017-08-05T00:42:29.250Z,16.80
2017-08-05T00:44:56.806Z,16.90
2017-08-05T00:47:25.108Z,17.00
2017-08-05T00:49:52.659Z,16.90
2017-08-05T00:52:20.179Z,16.90
2017-08-05T00:54:47.710Z,16.90
2017-08-05T00:57:15.264Z,16.90
2017-08-05T00:59:42.791Z,16.90
2017-08-05T01:02:11.107Z,16.90
2017-08-05T01:04:38.634Z,16.90
2017-08-05T01:07:06.191Z,16.90
2017-08-05T01:09:33.714Z,16.80
2017-08-05T01:12:01.258Z,16.80
2017-08-05T01:14:28.783Z,16.70
2017-08-05T01:16:56.335Z,16.70
2017-08-05T01:19:23.858Z,16.80
2017-08-05T01:21:51.410Z,16.90
2017-08-05T01:24:18.943Z,16.70
2017-08-05T01:26:46.499Z,16.70
2017-08-05T01:29:14.021Z,16.70
2017-08-05T01:31:42.340Z,16.60
2017-08-05T01:34:09.867Z,16.60
2017-08-05T01:36:37.416Z,16.60
2017-08-05T01:39:05.703Z,16.40
2017-08-05T01:41:33.255Z,16.40
2017-08-05T01:44:00.783Z,16.30
2017-08-05T01:46:28.331Z,16.30
2017-08-05T01:48:55.854Z,16.30
2017-08-05T01:51:23.402Z,16.20
2017-08-05T01:53:50.936Z,16.10
2017-08-05T01:56:19.257Z,16.30
2017-08-05T01:58:46.782Z,16.30
2017-08-05T02:01:15.075Z,16.40
2017-08-05T02:03:42.627Z,16.40
2017-08-05T02:06:10.928Z,16.40
2017-08-05T02:08:38.478Z,16.40
2017-08-05T02:11:06.012Z,16.40
2017-08-05T02:13:34.339Z,16.40
2017-08-05T02:16:01.872Z,16.40
2017-08-05T02:18:29.422Z,16.40
2017-08-05T02:20:56.946Z,16.50
2017-08-05T02:23:24.490Z,16.40
2017-08-05T02:25:52.014Z,16.40
2017-08-05T02:28:19.570Z,16.40
2017-08-05T02:30:47.098Z,16.50
2017-08-05T02:33:15.410Z,16.60
2017-08-05T02:35:42.930Z,16.60
2017-08-05T02:38:10.487Z,16.70
2017-08-05T02:40:38.018Z,16.70
2017-08-05T02:43:05.576Z,16.60
2017-08-05T02:45:33.101Z,16.70
2017-08-05T02:48:00.655Z,16.70
2017-08-05T02:50:28.183Z,16.70
2017-08-05T02:52:55.734Z,16.80
2017-08-05T02:55:23.259Z,16.70
2017-08-05T02:57:50.806Z,16.70
2017-08-05T03:00:18.335Z,16.70
2017-08-05T03:02:46.656Z,16.60
2017-08-05T03:05:14.177Z,16.60
2017-08-05T03:07:42.467Z,16.40
2017-08-05T03:10:10.027Z,16.40
2017-08-05T03:12:37.562Z,16.40
2017-08-05T03:15:05.879Z,16.60
2017-08-05T03:17:33.403Z,16.50
2017-08-05T03:20:01.725Z,16.60
2017-08-05T03:22:29.250Z,16.50
2017-08-05T03:24:57.562Z,16.60
2017-08-05T03:27:25.086Z,16.60
2017-08-05T03:29:53.401Z,16.60
2017-08-05T03:32:20.927Z,16.60
2017-08-05T03:34:48.478Z,16.70
2017-08-05T03:37:16.792Z,16.90
2017-08-05T03:39:44.346Z,16.90
2017-08-05T03:42:11.873Z,16.90
2017-08-05T03:44:40.192Z,16.80
2017-08-05T03:47:07.722Z,16.80
2017-08-05T03:49:35.273Z,16.80
2017-08-05T03:52:03.573Z,16.80
2017-08-05T03:54:31.128Z,16.80
2017-08-05T03:56:58.651Z,16.80
2017-08-05T03:59:26.236Z,16.90
2017-08-05T04:01:54.521Z,17.00
2017-08-05T04:04:22.046Z,17.00
2017-08-05T04:06:49.598Z,17.00
2017-08-05T04:09:17.126Z,17.00
2017-08-05T04:11:44.689Z,16.90
2017-08-05T04:14:12.215Z,16.80
2017-08-05T04:16:39.765Z,16.80
2017-08-05T04:19:09.230Z,16.90
2017-08-05T04:21:36.807Z,16.90
2017-08-05T04:24:04.863Z,17.00
2017-08-05T04:26:33.217Z,17.00
2017-08-05T04:29:00.742Z,17.00
2017-08-05T04:31:29.061Z,17.10
2017-08-05T04:33:56.588Z,17.00
2017-08-05T04:36:24.144Z,17.00
2017-08-05T04:38:51.670Z,17.00
2017-08-05T04:41:19.222Z,17.00
2017-08-05T04:43:46.751Z,17.10
2017-08-05T04:46:14.309Z,17.30
2017-08-05T04:48:41.839Z,17.20
2017-08-05T04:51:09.386Z,17.20
2017-08-05T04:53:37.690Z,17.30
2017-08-05T04:56:05.242Z,17.30
2017-08-05T04:58:32.780Z,17.40
2017-08-05T05:01:01.117Z,17.40
2017-08-05T05:03:28.655Z,17.30
2017-08-05T05:05:56.186Z,17.40
2017-08-05T05:08:24.506Z,17.40
2017-08-05T05:10:52.030Z,17.30
2017-08-05T05:13:19.582Z,17.30
2017-08-05T05:15:47.875Z,17.40
2017-08-05T05:18:15.426Z,17.40
2017-08-05T05:20:42.952Z,17.40
2017-08-05T05:23:10.502Z,17.50
2017-08-05T05:25:38.041Z,17.60
2017-08-05T05:28:05.594Z,17.60
2017-08-05T05:30:33.158Z,17.70
2017-08-05T05:33:00.702Z,17.80
2017-08-05T05:35:28.231Z,17.80
2017-08-05T05:37:56.549Z,17.90
2017-08-05T05:40:24.079Z,17.90
2017-08-05T05:42:51.645Z,18.00
2017-08-05T05:45:19.176Z,18.10
2017-08-05T05:47:46.731Z,18.30
2017-08-05T05:50:14.259Z,18.50
2017-08-05T05:52:41.806Z,18.60
2017-08-05T05:55:09.330Z,18.60
2017-08-05T05:57:37.663Z,19.00
2017-08-05T06:00:05.198Z,19.00
2017-08-05T06:02:32.759Z,18.80
2017-08-05T06:05:00.290Z,19.00
2017-08-05T06:07:28.619Z,19.20
2017-08-05T06:09:56.147Z,19.10
2017-08-05T06:12:23.667Z,19.20
2017-08-05T06:14:51.997Z,18.90
2017-08-05T06:17:19.523Z,18.90
2017-08-05T06:19:47.834Z,19.10
2017-08-05T06:22:15.361Z,19.10
2017-08-05T06:24:42.916Z,19.30
2017-08-05T06:27:10.444Z,19.30
2017-08-05T06:29:37.991Z,19.40
2017-08-05T06:32:05.514Z,19.40
2017-08-05T06:34:33.067Z,19.40
2017-08-05T06:37:00.602Z,19.40
2017-08-05T06:39:28.934Z,19.40
2017-08-05T06:41:56.466Z,19.30
2017-08-05T06:44:24.017Z,19.30
2017-08-05T06:46:51.556Z,19.40
2017-08-05T06:49:19.883Z,19.40
2017-08-05T06:51:47.406Z,19.40
2017-08-05T06:54:14.952Z,19.50
2017-08-05T06:56:42.465Z,19.60
2017-08-05T06:59:10.017Z,19.60
2017-08-05T07:01:37.548Z,19.80
2017-08-05T07:04:05.106Z,20.00
2017-08-05T07:06:33.399Z,20.40
2017-08-05T07:09:00.950Z,20.40
2017-08-05T07:11:28.499Z,20.50
2017-08-05T07:13:57.159Z,20.80
2017-08-05T07:16:24.768Z,20.80
2017-08-05T07:18:52.298Z,21.00
2017-08-05T07:21:20.620Z,21.30
2017-08-05T07:23:48.162Z,21.20
2017-08-05T07:26:35.006Z,20.90
2017-08-05T07:29:02.539Z,20.60
2017-08-05T07:31:30.087Z,20.40
2017-08-05T07:33:57.619Z,20.10
2017-08-05T07:36:25.178Z,19.90
2017-08-05T07:38:53.484Z,19.20
2017-08-05T07:41:21.032Z,19.20
2017-08-05T07:43:49.325Z,18.90
2017-08-05T07:46:16.882Z,18.80
2017-08-05T07:48:44.414Z,18.90
2017-08-05T07:51:12.738Z,19.30
2017-08-05T07:53:40.266Z,19.30
2017-08-05T07:56:08.579Z,20.00
2017-08-05T07:58:36.320Z,20.00
2017-08-05T08:01:03.878Z,20.10
2017-08-05T08:03:31.406Z,20.30
2017-08-05T08:05:58.962Z,20.30
2017-08-05T08:08:26.495Z,20.40
2017-08-05T08:10:54.056Z,20.50
2017-08-05T08:13:21.587Z,21.00
2017-08-05T08:15:49.144Z,20.90
2017-08-05T08:18:16.671Z,21.10
2017-08-05T08:20:45.010Z,21.30
2017-08-05T08:23:12.530Z,21.30
2017-08-05T08:25:40.071Z,21.20
2017-08-05T08:28:08.387Z,21.40
2017-08-05T08:30:36.015Z,21.30
2017-08-05T08:33:04.348Z,21.80
2017-08-05T08:35:31.876Z,21.80
2017-08-05T08:37:59.426Z,21.70
2017-08-05T08:40:26.954Z,21.50
2017-08-05T08:42:54.510Z,21.30
2017-08-05T08:45:22.041Z,21.10
2017-08-05T08:47:49.614Z,21.10
2017-08-05T08:50:17.144Z,21.00
2017-08-05T08:52:44.699Z,20.80
2017-08-05T08:55:12.233Z,20.60
2017-08-05T08:57:40.546Z,20.60
2017-08-05T09:00:08.070Z,20.60
2017-08-05T09:02:35.626Z,20.80
2017-08-05T09:05:03.919Z,20.80
2017-08-05T09:07:31.470Z,20.80
2017-08-05T09:09:59.764Z,20.70
2017-08-05T09:12:27.323Z,20.70
2017-08-05T09:14:54.857Z,20.50
2017-08-05T09:17:23.195Z,20.30
2017-08-05T09:19:50.723Z,20.20
2017-08-05T09:22:18.274Z,20.20
2017-08-05T09:24:45.817Z,20.20
2017-08-05T09:27:14.107Z,20.40
2017-08-05T09:29:41.667Z,20.40
2017-08-05T09:32:09.199Z,20.70
2017-08-05T09:34:37.519Z,21.70
2017-08-05T09:37:05.056Z,21.70
2017-08-05T09:39:32.602Z,21.70
2017-08-05T09:42:00.906Z,21.80
2017-08-05T09:44:28.459Z,21.80
2017-08-05T09:46:55.990Z,21.60
2017-08-05T09:49:23.552Z,21.80
2017-08-05T09:51:51.098Z,21.50
2017-08-05T09:54:18.653Z,21.60
2017-08-05T09:56:46.183Z,21.40
2017-08-05T09:59:13.728Z,21.50
2017-08-05T10:01:41.254Z,22.20
2017-08-05T10:04:09.562Z,23.00
2017-08-05T10:06:37.087Z,23.00
2017-08-05T10:09:05.404Z,23.00
2017-08-05T10:11:32.922Z,23.00
2017-08-05T10:14:01.235Z,22.80
2017-08-05T10:16:28.770Z,22.80
2017-08-05T10:18:57.106Z,23.00
2017-08-05T10:21:24.634Z,23.00
2017-08-05T10:23:52.184Z,23.00
2017-08-05T10:26:19.714Z,22.90
2017-08-05T10:28:48.015Z,22.50
2017-08-05T10:31:15.565Z,22.50
2017-08-05T10:33:43.860Z,22.60
2017-08-05T10:36:11.420Z,22.60
2017-08-05T10:38:38.953Z,22.80
2017-08-05T10:41:06.511Z,23.00
2017-08-05T10:43:34.803Z,23.40
2017-08-05T10:46:03.130Z,23.20
2017-08-05T10:48:30.655Z,23.20
2017-08-05T10:50:58.199Z,23.30
2017-08-05T10:53:26.486Z,22.70
2017-08-05T10:55:54.040Z,22.80
2017-08-05T10:58:21.571Z,22.90
2017-08-05T11:00:49.119Z,22.70
2017-08-05T11:03:16.644Z,22.60
2017-08-05T11:05:44.203Z,22.30
2017-08-05T11:08:11.731Z,21.70
2017-08-05T11:10:40.047Z,21.30
2017-08-05T11:13:07.579Z,21.20
2017-08-05T11:15:35.131Z,21.50
2017-08-05T11:18:02.666Z,22.00
2017-08-05T11:20:30.231Z,22.80
2017-08-05T11:22:57.754Z,23.30
2017-08-05T11:25:25.273Z,23.10
2017-08-05T11:27:52.820Z,23.10
2017-08-05T11:30:21.114Z,23.10
2017-08-05T11:32:48.662Z,23.10
2017-08-05T11:35:16.957Z,23.40
2017-08-05T11:37:44.506Z,23.40
2017-08-05T11:40:12.026Z,23.10
2017-08-05T11:42:39.578Z,22.80
2017-08-05T11:45:07.102Z,22.70
2017-08-05T11:47:34.652Z,22.90
2017-08-05T11:50:02.183Z,23.30
2017-08-05T11:52:30.498Z,23.50
2017-08-05T11:54:58.038Z,23.40
2017-08-05T11:57:25.582Z,23.50
2017-08-05T11:59:53.871Z,23.40
2017-08-05T12:02:22.193Z,23.10
2017-08-05T12:04:49.711Z,23.10
2017-08-05T12:07:18.022Z,22.80
2017-08-05T12:09:45.542Z,22.70
2017-08-05T12:12:13.864Z,22.90
2017-08-05T12:14:41.392Z,22.90
2017-08-05T12:17:08.940Z,23.20
2017-08-05T12:19:36.471Z,23.50
2017-08-05T12:22:04.019Z,24.10
2017-08-05T12:24:31.544Z,24.20
2017-08-05T12:26:59.067Z,23.80
2017-08-05T12:29:26.614Z,23.30
2017-08-05T12:31:54.134Z,23.30
2017-08-05T12:34:21.676Z,23.40
2017-08-05T12:36:49.202Z,23.30
2017-08-05T12:39:17.514Z,23.80
2017-08-05T12:41:45.043Z,23.70
2017-08-05T12:44:12.598Z,24.20
2017-08-05T12:46:40.891Z,23.70
2017-08-05T12:49:08.438Z,23.60
2017-08-05T12:51:36.739Z,24.20
2017-08-05T12:54:04.286Z,24.20
2017-08-05T12:56:32.582Z,23.60
2017-08-05T12:59:00.132Z,23.60
2017-08-05T13:01:27.654Z,23.10
2017-08-05T13:03:55.211Z,23.10
2017-08-05T13:06:22.727Z,22.80
2017-08-05T13:08:50.275Z,23.10
2017-08-05T13:11:17.803Z,23.50
2017-08-05T13:13:45.361Z,23.20
2017-08-05T13:16:12.887Z,23.60
2017-08-05T13:18:40.443Z,24.00
2017-08-05T13:21:07.984Z,23.70
2017-08-05T13:23:35.543Z,23.90
2017-08-05T13:26:03.070Z,23.80
2017-08-05T13:28:31.387Z,23.00
2017-08-05T13:30:58.915Z,23.00
2017-08-05T13:33:27.203Z,23.50
2017-08-05T13:35:54.763Z,23.50
2017-08-05T13:38:22.297Z,23.50
2017-08-05T13:40:50.617Z,23.30
2017-08-05T13:43:18.138Z,23.30
2017-08-05T13:45:46.458Z,23.40
2017-08-05T13:48:13.990Z,23.40
2017-08-05T13:50:41.534Z,23.30
2017-08-05T13:53:09.825Z,22.80
2017-08-05T13:55:37.370Z,22.80
2017-08-05T13:58:05.667Z,22.30
2017-08-05T14:00:33.227Z,22.30
2017-08-05T14:03:00.760Z,21.90
2017-08-05T14:05:29.081Z,21.30
2017-08-05T14:07:56.609Z,21.30
2017-08-05T14:10:24.926Z,21.80
2017-08-05T14:12:52.454Z,21.80
2017-08-05T14:15:20.007Z,21.50
2017-08-05T14:17:48.302Z,21.30
2017-08-05T14:20:15.846Z,21.30
2017-08-05T14:22:44.148Z,21.30
2017-08-05T14:25:11.690Z,21.30
2017-08-05T14:27:39.221Z,21.30
2017-08-05T14:30:06.769Z,20.90
2017-08-05T14:32:34.307Z,21.00
2017-08-05T14:35:01.834Z,21.00
2017-08-05T14:37:29.389Z,21.20
2017-08-05T14:39:56.926Z,21.10
2017-08-05T14:42:25.244Z,20.90
2017-08-05T14:44:52.766Z,20.80
2017-08-05T14:47:21.085Z,20.50
2017-08-05T14:49:48.603Z,20.50
2017-08-05T14:52:16.914Z,20.60
2017-08-05T14:54:44.438Z,20.60
2017-08-05T14:57:12.758Z,20.30
2017-08-05T14:59:40.281Z,20.30
2017-08-05T15:02:07.831Z,20.30
2017-08-05T15:04:36.124Z,20.30
2017-08-05T15:07:04.435Z,20.60
2017-08-05T15:09:31.955Z,20.60
2017-08-05T15:12:00.267Z,20.50
2017-08-05T15:14:27.803Z,20.50
2017-08-05T15:16:55.342Z,20.70
2017-08-05T15:19:22.873Z,20.70
2017-08-05T15:21:50.423Z,20.70
2017-08-05T15:24:17.959Z,20.70
2017-08-05T15:26:45.508Z,21.20
2017-08-05T15:29:13.039Z,21.40
2017-08-05T15:31:41.351Z,21.40
2017-08-05T15:34:08.879Z,21.40
2017-08-05T15:36:37.203Z,21.30
2017-08-05T15:39:04.722Z,21.30
2017-08-05T15:41:33.014Z,20.60
2017-08-05T15:44:00.566Z,20.50
2017-08-05T15:46:28.854Z,20.60
2017-08-05T15:48:56.399Z,20.50
2017-08-05T15:51:23.930Z,20.30
2017-08-05T15:53:51.478Z,20.10
2017-08-05T15:56:19.003Z,19.90
2017-08-05T15:58:46.560Z,20.00
2017-08-05T16:01:14.087Z,20.10
2017-08-05T16:03:42.398Z,20.40
2017-08-05T16:06:09.922Z,20.40
2017-08-05T16:08:38.234Z,20.20
2017-08-05T16:11:05.756Z,20.20
2017-08-05T16:13:34.066Z,20.30
2017-08-05T16:16:01.591Z,20.30
2017-08-05T16:18:29.174Z,20.20
2017-08-05T16:20:56.719Z,20.10
2017-08-05T16:23:25.038Z,19.90
2017-08-05T16:25:52.573Z,19.90
2017-08-05T16:28:20.125Z,19.90
2017-08-05T16:30:47.654Z,19.70
2017-08-05T16:33:15.202Z,19.70
2017-08-05T16:35:42.727Z,19.70
2017-08-05T16:38:10.287Z,19.60
2017-08-05T16:40:37.808Z,19.80
2017-08-05T16:43:06.120Z,19.90
2017-08-05T16:45:33.651Z,19.90
2017-08-05T16:48:01.947Z,20.00
2017-08-05T16:50:29.504Z,20.00
2017-08-05T16:52:57.039Z,20.10
2017-08-05T16:55:25.354Z,19.90
2017-08-05T16:57:52.875Z,19.90
2017-08-05T17:00:20.435Z,19.80
2017-08-05T17:02:48.748Z,19.80
2017-08-05T17:05:16.314Z,19.80
2017-08-05T17:07:43.846Z,19.70
2017-08-05T17:10:11.403Z,19.60
2017-08-05T17:12:39.707Z,19.30
2017-08-05T17:15:07.269Z,19.30
2017-08-05T17:17:34.811Z,19.30
2017-08-05T17:20:02.378Z,19.30
2017-08-05T17:22:29.906Z,19.30
2017-08-05T17:24:58.223Z,19.20
2017-08-05T17:27:25.816Z,19.20
2017-08-05T17:29:53.382Z,19.20
2017-08-05T17:32:20.911Z,19.30
2017-08-05T17:34:48.458Z,19.50
2017-08-05T17:37:15.997Z,19.60
2017-08-05T17:39:44.699Z,19.80
2017-08-05T17:42:12.227Z,19.80
2017-08-05T17:44:39.778Z,19.80
2017-08-05T17:47:07.462Z,19.90
2017-08-05T17:49:35.778Z,19.90
2017-08-05T17:52:03.316Z,19.90
2017-08-05T17:54:30.843Z,20.00
2017-08-05T17:56:58.569Z,20.00
2017-08-05T18:02:20.411Z,19.60
2017-08-05T18:07:41.164Z,19.60
2017-08-05T18:10:08.773Z,19.50
2017-08-05T18:12:36.309Z,19.40
2017-08-05T18:15:04.611Z,19.40
2017-08-05T18:17:32.170Z,19.40
2017-08-05T18:19:59.701Z,19.40
2017-08-05T18:22:28.023Z,19.20
2017-08-05T18:24:55.568Z,19.20
2017-08-05T18:27:23.123Z,19.20
2017-08-05T18:29:50.665Z,19.10
2017-08-05T18:32:18.987Z,18.90
2017-08-05T18:34:46.510Z,18.90
2017-08-05T18:37:14.057Z,18.80
2017-08-05T18:39:42.342Z,18.50
2017-08-05T18:42:10.657Z,18.50
2017-08-05T18:44:38.187Z,18.50
2017-08-05T18:47:05.780Z,18.50
2017-08-05T18:49:33.954Z,18.40
2017-08-05T18:52:01.505Z,18.30
2017-08-05T18:54:29.034Z,18.10
2017-08-05T18:56:57.360Z,18.00
2017-08-05T18:59:24.883Z,17.90
2017-08-05T19:01:52.428Z,17.80
2017-08-05T19:04:20.727Z,17.70
2017-08-05T19:06:48.277Z,17.60
2017-08-05T19:09:15.815Z,17.50
2017-08-05T19:11:44.154Z,17.40
2017-08-05T19:14:11.686Z,17.30
2017-08-05T19:16:39.247Z,17.30
2017-08-05T19:19:06.783Z,17.20
2017-08-05T19:21:35.102Z,17.10
2017-08-05T19:24:02.670Z,17.10
2017-08-05T19:26:30.200Z,17.00
2017-08-05T19:28:57.764Z,16.90
2017-08-05T19:31:25.314Z,16.90
2017-08-05T19:33:52.880Z,16.80
2017-08-05T19:36:20.413Z,16.80
2017-08-05T19:38:48.734Z,16.80
2017-08-05T19:41:16.302Z,16.80
2017-08-05T19:43:43.851Z,16.80
2017-08-05T19:46:11.396Z,16.90
2017-08-05T19:48:38.952Z,16.90
2017-08-05T19:51:06.488Z,16.80
2017-08-05T19:53:34.814Z,16.70
2017-08-05T19:56:02.340Z,16.70
2017-08-05T19:58:29.883Z,16.80
2017-08-05T20:00:58.191Z,16.80
2017-08-05T20:03:25.738Z,16.80
2017-08-05T20:05:53.262Z,16.70
2017-08-05T20:08:20.804Z,16.70
2017-08-05T20:10:48.321Z,16.70
2017-08-05T20:13:15.920Z,16.80
2017-08-05T20:15:43.455Z,16.90
2017-08-05T20:18:11.015Z,16.90
2017-08-05T20:20:38.544Z,16.90
2017-08-05T20:23:06.874Z,17.10
2017-08-05T20:25:34.400Z,17.10
2017-08-05T20:28:01.925Z,17.20
2017-08-05T20:30:29.474Z,17.10
2017-08-05T20:32:57.920Z,17.10
2017-08-05T20:35:26.705Z,17.00
2017-08-05T20:37:54.239Z,16.90
2017-08-05T20:40:21.867Z,16.90
2017-08-05T20:42:49.513Z,16.80
2017-08-05T20:45:17.944Z,16.70
2017-08-05T20:47:45.469Z,16.70
2017-08-05T20:50:13.022Z,16.80
2017-08-05T20:52:40.590Z,16.90
2017-08-05T20:55:08.163Z,16.80
2017-08-05T20:57:36.457Z,16.80
2017-08-05T21:00:04.001Z,16.80
2017-08-05T21:02:32.299Z,16.70
2017-08-05T21:04:59.862Z,16.70
2017-08-05T21:07:27.387Z,16.60
2017-08-05T21:09:55.714Z,16.50
2017-08-05T21:12:23.271Z,16.50
2017-08-05T21:14:50.836Z,16.40
2017-08-05T21:17:18.372Z,16.40
2017-08-05T21:19:45.937Z,16.30
2017-08-05T21:22:13.474Z,16.20
2017-08-05T21:24:41.798Z,16.00
2017-08-05T21:27:09.334Z,16.00
2017-08-05T21:29:36.909Z,16.00
2017-08-05T21:32:04.434Z,15.90
2017-08-05T21:34:31.965Z,15.80
2017-08-05T21:36:59.514Z,15.80
2017-08-05T21:39:27.051Z,15.80
2017-08-05T21:41:54.890Z,15.70
2017-08-05T21:44:22.418Z,15.70
2017-08-05T21:46:49.967Z,15.70
2017-08-05T21:49:17.508Z,15.60
2017-08-05T21:51:45.066Z,15.50
2017-08-05T21:54:12.603Z,15.50
2017-08-05T21:56:40.161Z,15.40
2017-08-05T21:59:07.682Z,15.40
2017-08-05T22:01:36.011Z,15.30
2017-08-05T22:04:03.539Z,15.30
2017-08-05T22:06:31.858Z,15.40
2017-08-05T22:08:59.383Z,15.40
2017-08-05T22:11:26.928Z,15.50
2017-08-05T22:13:55.223Z,15.50
2017-08-05T22:16:22.767Z,15.50
2017-08-05T22:18:51.054Z,15.50
2017-08-05T22:21:18.602Z,15.50
2017-08-05T22:23:46.901Z,15.40
2017-08-05T22:26:14.462Z,15.40
2017-08-05T22:28:41.984Z,15.40
2017-08-05T22:51:49.976Z,15.30
2017-08-05T22:54:17.502Z,15.20
2017-08-05T22:56:45.814Z,15.30
2017-08-05T22:59:13.337Z,15.30
2017-08-05T23:01:40.870Z,15.20
2017-08-05T23:04:08.418Z,15.20
2017-08-05T23:06:35.942Z,15.30
2017-08-05T23:09:03.494Z,15.20
2017-08-05T23:11:31.032Z,15.20
2017-08-05T23:13:59.355Z,15.00
2017-08-05T23:16:26.880Z,15.00
2017-08-05T23:18:54.435Z,15.00
2017-08-05T23:21:22.724Z,15.00
2017-08-05T23:23:50.283Z,15.00
2017-08-05T23:26:17.814Z,15.00
2017-08-05T23:28:45.358Z,15.00
2017-08-05T23:31:12.886Z,14.90
2017-08-05T23:33:40.432Z,14.90
2017-08-05T23:36:07.965Z,14.80
2017-08-05T23:38:36.283Z,14.70
2017-08-05T23:41:03.807Z,14.70
2017-08-05T23:43:32.123Z,14.80
2017-08-05T23:45:59.658Z,14.80
2017-08-05T23:48:27.201Z,14.90
2017-08-05T23:50:55.491Z,14.90
2017-08-05T23:53:23.039Z,14.90
2017-08-05T23:55:51.331Z,14.90
2017-08-05T23:58:18.886Z,14.90
